Time;durP1;ratioP1;P1;durP2;ratioP2;P2;SDS_P1;SDS_P2;PMS_P1;PMS_P2;Temp;Humidity;BMP_temperature;BMP_pressure;BME280_temperature;BME280_humidity;BME280_pressure;Samples;Min_cycle;Max_cycle;Signal;HPM_P1;HPM_P2
2022/11/18 00:01:03;;;;;;;6.03;4.00;;;;;;;7.94;68.64;99745.94;5018654;27;97215;-83
2022/11/18 00:03:28;;;;;;;4.53;3.73;;;;;;;7.95;68.37;99753.66;5047554;27;101566;-84
2022/11/18 00:05:57;;;;;;;4.20;3.80;;;;;;;7.93;68.35;99749.94;5048509;27;98713;-81
2022/11/18 00:08:24;;;;;;;4.70;3.77;;;;;;;7.90;68.28;99779.06;5024520;27;97034;-84
2022/11/18 00:10:50;;;;;;;4.93;3.80;;;;;;;7.90;68.68;99745.44;5054211;27;96894;-84
2022/11/18 00:16:01;;;;;;;5.63;4.33;;;;;;;7.86;68.85;99745.69;5035521;27;97163;-83
2022/11/18 00:18:26;;;;;;;5.37;3.80;;;;;;;7.83;68.56;99763.09;5039253;27;96810;-80
2022/11/18 00:20:52;;;;;;;4.07;3.67;;;;;;;7.86;68.45;99762.13;5022326;27;96683;-82
2022/11/18 00:23:17;;;;;;;4.10;3.80;;;;;;;7.82;68.63;99760.88;5033346;27;97324;-81
2022/11/18 00:25:43;;;;;;;4.73;4.17;;;;;;;7.83;68.82;99756.88;5040788;27;98574;-81
2022/11/18 00:28:08;;;;;;;5.77;3.93;;;;;;;7.82;68.55;99780.75;5013746;27;96882;-82
2022/11/18 00:30:36;;;;;;;4.67;3.43;;;;;;;7.84;68.76;99748.16;5041876;27;96644;-82
2022/11/18 00:33:01;;;;;;;4.93;3.40;;;;;;;7.81;68.44;99775.78;5029608;27;98610;-81
2022/11/18 00:35:26;;;;;;;4.33;3.70;;;;;;;7.79;68.71;99764.59;5031316;27;96721;-81
2022/11/18 00:37:52;;;;;;;4.50;3.57;;;;;;;7.80;68.44;99768.84;5025063;27;97276;-82
2022/11/18 00:40:18;;;;;;;3.87;3.33;;;;;;;7.83;68.41;99765.09;5016934;27;96735;-81
2022/11/18 00:42:52;;;;;;;3.53;3.17;;;;;;;7.84;68.36;99774.81;5025990;27;97320;-82
2022/11/18 00:45:22;;;;;;;3.73;3.43;;;;;;;7.82;68.56;99783.50;5009488;27;96657;-81
2022/11/18 00:47:47;;;;;;;4.10;3.47;;;;;;;7.82;68.56;99788.25;5032068;27;96625;-82
2022/11/18 00:50:13;;;;;;;4.00;3.23;;;;;;;7.81;68.42;99786.75;5043560;27;97398;-82
2022/11/18 00:52:40;;;;;;;4.40;3.60;;;;;;;7.78;68.60;99787.72;4998230;27;101794;-82
2022/11/18 00:55:06;;;;;;;3.33;3.00;;;;;;;7.77;68.41;99819.09;5016259;27;98973;-81
2022/11/18 00:57:31;;;;;;;3.33;2.90;;;;;;;7.82;68.48;99799.19;5030260;27;96508;-81
2022/11/18 00:59:57;;;;;;;3.10;2.80;;;;;;;7.78;68.44;99795.94;5030777;27;96667;-81
2022/11/18 01:02:22;;;;;;;3.37;3.07;;;;;;;7.84;68.27;99800.19;5013107;27;99997;-82
2022/11/18 01:04:48;;;;;;;3.90;3.37;;;;;;;7.85;68.37;99826.34;5028995;27;97127;-81
2022/11/18 01:07:14;;;;;;;5.40;3.90;;;;;;;7.74;68.49;99809.13;5015348;27;96589;-81
2022/11/18 01:09:40;;;;;;;3.40;3.07;;;;;;;7.76;68.54;99842.22;5040091;27;97394;-81
2022/11/18 01:14:51;;;;;;;3.30;3.00;;;;;;;7.79;68.50;99803.66;5039023;27;96306;-81
2022/11/18 01:17:21;;;;;;;3.70;3.30;;;;;;;7.79;68.32;99806.41;5051127;27;97543;-81
2022/11/18 01:19:46;;;;;;;4.37;3.00;;;;;;;7.78;68.37;99815.09;5048837;27;97014;-81
2022/11/18 01:22:12;;;;;;;4.00;3.50;;;;;;;7.75;68.57;99805.16;5027408;27;99474;-80
2022/11/18 01:24:38;;;;;;;3.40;3.10;;;;;;;7.64;68.48;99799.63;5022986;27;98159;-82
2022/11/18 01:27:03;;;;;;;4.10;3.70;;;;;;;7.70;68.49;99808.59;5021880;27;96680;-82
2022/11/18 01:29:29;;;;;;;4.40;3.10;;;;;;;7.71;68.57;99832.75;5019079;27;97098;-81
2022/11/18 01:31:54;;;;;;;2.90;2.70;;;;;;;7.74;68.39;99825.53;5028288;27;97593;-81
2022/11/18 01:34:19;;;;;;;6.23;3.80;;;;;;;7.76;68.25;99812.09;5053711;27;97391;-81
2022/11/18 01:36:45;;;;;;;5.50;3.20;;;;;;;7.77;68.15;99803.41;5031755;27;96809;-81
2022/11/18 01:39:11;;;;;;;3.97;2.90;;;;;;;7.75;68.13;99816.09;5020808;27;97144;-81
2022/11/18 01:41:37;;;;;;;3.13;2.87;;;;;;;7.70;68.29;99820.31;5039443;27;96750;-83
2022/11/18 01:44:24;;;;;;;4.03;3.33;;;;;;;7.71;68.01;99805.38;5016585;27;97172;-82
2022/11/18 01:46:49;;;;;;;3.67;3.20;;;;;;;7.73;68.17;99816.59;5012664;27;96789;-83
2022/11/18 01:49:15;;;;;;;3.23;2.93;;;;;;;7.65;68.18;99837.44;5025173;27;96999;-83
2022/11/18 01:51:48;;;;;;;3.83;3.20;;;;;;;7.60;68.32;99810.81;5017994;27;97110;-82
2022/11/18 01:54:22;;;;;;;3.13;2.87;;;;;;;7.63;68.25;99814.53;5024636;27;97077;-83
2022/11/18 01:56:58;;;;;;;3.90;3.20;;;;;;;7.61;68.11;99817.78;5015960;27;97033;-82
2022/11/18 01:59:27;;;;;;;3.03;2.73;;;;;;;7.60;68.30;99821.75;5024445;27;97348;-82
2022/11/18 02:01:54;;;;;;;5.47;2.60;;;;;;;7.61;68.16;99833.44;5016101;28;97596;-83
2022/11/18 02:04:21;;;;;;;2.90;2.70;;;;;;;7.55;68.54;99820.50;5010589;27;98378;-83
2022/11/18 02:06:47;;;;;;;3.30;3.00;;;;;;;7.64;68.19;99832.47;5020529;27;97069;-84
2022/11/18 02:09:14;;;;;;;4.70;3.60;;;;;;;7.65;68.27;99836.69;5037215;27;96805;-84
2022/11/18 02:11:55;;;;;;;4.33;3.93;;;;;;;7.61;68.11;99845.16;5044801;27;98202;-82
2022/11/18 02:14:28;;;;;;;2.93;2.73;;;;;;;7.57;68.02;99842.66;5019584;27;103640;-82
2022/11/18 02:16:59;;;;;;;4.93;3.93;;;;;;;7.56;68.18;99835.69;5017402;27;97441;-84
2022/11/18 02:19:44;;;;;;;4.60;3.57;;;;;;;7.49;68.30;99849.81;5019300;27;97889;-83
2022/11/18 02:22:28;;;;;;;3.90;3.10;;;;;;;7.51;68.38;99849.34;5030452;27;100543;-83
2022/11/18 02:25:30;;;;;;;3.83;3.43;;;;;;;7.47;68.13;99833.16;5053841;27;101215;-84
2022/11/18 02:28:13;;;;;;;4.03;3.63;;;;;;;7.47;68.51;99844.09;5033717;27;97235;-84
2022/11/18 02:30:45;;;;;;;7.30;3.70;;;;;;;7.48;68.38;99842.88;5030842;27;97077;-83
2022/11/18 02:33:41;;;;;;;3.80;3.40;;;;;;;7.50;68.22;99845.09;5043841;27;102204;-83
2022/11/18 02:36:42;;;;;;;7.93;5.30;;;;;;;7.49;68.33;99852.56;5024872;27;101911;-83
2022/11/18 02:39:15;;;;;;;5.83;3.60;;;;;;;7.51;68.26;99852.81;4988361;27;97999;-84
2022/11/18 02:41:45;;;;;;;3.90;3.50;;;;;;;7.48;68.05;99862.03;5045352;27;97246;-83
2022/11/18 02:44:14;;;;;;;4.40;3.97;;;;;;;7.48;68.11;99869.47;5026306;27;96776;-83
2022/11/18 02:46:44;;;;;;;5.30;4.20;;;;;;;7.44;68.38;99863.50;5023878;27;100389;-83
2022/11/18 02:49:19;;;;;;;6.10;4.40;;;;;;;7.43;68.35;99868.22;5040376;27;97018;-84
2022/11/18 02:51:46;;;;;;;6.23;4.67;;;;;;;7.41;68.52;99876.16;5015165;27;96825;-83
2022/11/18 02:54:14;;;;;;;6.43;4.67;;;;;;;7.44;68.44;99868.97;5010248;27;98069;-86
2022/11/18 02:56:41;;;;;;;7.00;5.60;;;;;;;7.38;68.26;99863.44;5009027;27;97159;-84
2022/11/18 02:59:07;;;;;;;5.70;4.57;;;;;;;7.41;68.42;99872.66;5033448;27;97480;-82
2022/11/18 03:01:34;;;;;;;7.20;4.63;;;;;;;7.42;68.34;99896.06;5024500;27;98526;-83
2022/11/18 03:04:00;;;;;;;5.20;4.33;;;;;;;7.47;68.36;99867.97;5012801;27;96994;-82
2022/11/18 03:06:40;;;;;;;6.57;5.00;;;;;;;7.48;68.16;99874.94;5020556;27;98852;-82
2022/11/18 03:09:30;;;;;;;7.17;5.27;;;;;;;7.46;67.98;99866.47;5018326;27;96903;-84
2022/11/18 03:12:17;;;;;;;6.17;4.20;;;;;;;7.42;68.41;99869.47;5013147;27;98660;-82
2022/11/18 03:14:48;;;;;;;5.13;4.23;;;;;;;7.43;68.07;99872.91;5010810;27;98830;-83
2022/11/18 03:17:32;;;;;;;5.80;4.60;;;;;;;7.45;68.44;99884.88;5023992;27;98492;-83
2022/11/18 03:20:21;;;;;;;5.97;4.70;;;;;;;7.46;68.37;99882.91;5054767;27;99656;-83
2022/11/18 03:23:08;;;;;;;7.40;4.13;;;;;;;7.46;67.97;99875.44;5021920;27;97008;-84
2022/11/18 03:25:43;;;;;;;6.80;4.70;;;;;;;7.42;68.13;99883.13;5020653;27;102988;-82
2022/11/18 03:28:37;;;;;;;8.30;4.73;;;;;;;7.36;68.31;99878.88;5007852;27;100300;-82
2022/11/18 03:31:13;;;;;;;7.40;5.30;;;;;;;7.43;68.21;99892.06;4984827;27;98012;-83
2022/11/18 03:33:45;;;;;;;5.40;4.60;;;;;;;7.33;67.83;99916.16;5017274;27;97288;-83
2022/11/18 03:36:14;;;;;;;7.27;5.40;;;;;;;7.27;68.14;99898.94;5020366;27;97835;-83
2022/11/18 03:38:47;;;;;;;8.70;5.53;;;;;;;7.23;67.97;99898.41;5012879;27;97364;-82
2022/11/18 03:41:15;;;;;;;8.97;6.00;;;;;;;7.14;67.99;99915.00;5017115;28;97132;-83
2022/11/18 03:43:50;;;;;;;10.30;5.80;;;;;;;7.10;68.20;99930.16;5016268;27;97227;-82
2022/11/18 03:46:30;;;;;;;8.00;5.37;;;;;;;7.15;68.46;99913.78;5019291;28;101951;-83
2022/11/18 03:48:58;;;;;;;8.67;5.13;;;;;;;7.19;68.27;99908.84;5027034;27;100481;-82
2022/11/18 03:51:35;;;;;;;7.13;5.40;;;;;;;7.17;68.08;99905.84;5011029;27;97374;-83
2022/11/18 03:54:24;;;;;;;7.50;5.60;;;;;;;7.11;68.34;99916.00;5024642;27;96907;-83
2022/11/18 03:57:05;;;;;;;9.80;6.17;;;;;;;7.09;68.10;99929.41;5008625;27;103879;-84
2022/11/18 03:59:37;;;;;;;6.73;5.87;;;;;;;7.05;68.14;99931.63;5029332;27;102045;-84
2022/11/18 04:02:19;;;;;;;8.73;5.77;;;;;;;7.05;68.62;99928.88;5023129;27;96832;-84
2022/11/18 04:04:48;;;;;;;9.20;6.17;;;;;;;7.03;67.86;99934.09;5030832;27;97045;-83
2022/11/18 04:07:20;;;;;;;9.10;5.30;;;;;;;7.00;68.00;99931.56;5023541;27;99056;-83
2022/11/18 04:09:54;;;;;;;8.47;5.73;;;;;;;6.98;67.78;99944.97;5033831;27;97401;-82
2022/11/18 04:12:21;;;;;;;8.10;5.60;;;;;;;7.00;68.19;99939.75;5021280;27;96671;-83
2022/11/18 04:14:51;;;;;;;10.07;6.20;;;;;;;7.03;68.09;99950.50;5002420;27;96761;-83
2022/11/18 04:17:19;;;;;;;11.20;6.00;;;;;;;7.07;67.96;99942.06;5036704;27;97811;-83
2022/11/18 04:19:45;;;;;;;8.90;5.57;;;;;;;7.10;68.01;99947.31;5016697;27;97841;-84
2022/11/18 04:22:11;;;;;;;14.90;7.17;;;;;;;7.08;68.04;99960.72;5001708;27;98522;-83
2022/11/18 04:24:37;;;;;;;8.40;6.50;;;;;;;7.09;68.07;99947.78;5011945;27;97266;-82
2022/11/18 04:27:03;;;;;;;10.10;6.50;;;;;;;7.03;67.81;99958.69;5027465;27;97238;-83
2022/11/18 04:29:30;;;;;;;12.27;7.27;;;;;;;7.00;67.96;99946.00;5009033;27;97620;-83
2022/11/18 04:31:55;;;;;;;9.70;6.73;;;;;;;7.01;68.23;99944.00;5022584;27;97035;-82
2022/11/18 04:34:21;;;;;;;11.53;6.77;;;;;;;6.98;68.18;99953.94;5008365;27;97139;-82
2022/11/18 04:36:46;;;;;;;7.97;6.27;;;;;;;6.98;68.12;99950.44;5016101;27;97923;-83
2022/11/18 04:39:12;;;;;;;10.87;6.47;;;;;;;6.94;68.08;99953.41;4996990;28;97788;-82
2022/11/18 04:41:56;;;;;;;10.10;6.83;;;;;;;6.89;68.23;99969.75;5013067;27;97317;-83
2022/11/18 04:44:32;;;;;;;10.30;7.20;;;;;;;6.93;68.30;99951.13;5014826;27;97542;-85
2022/11/18 04:47:01;;;;;;;13.63;6.77;;;;;;;6.88;68.29;99955.31;5013093;27;97138;-82
2022/11/18 04:49:28;;;;;;;10.27;6.27;;;;;;;6.89;68.12;99967.00;5032819;27;98947;-83
2022/11/18 04:51:54;;;;;;;11.50;7.13;;;;;;;6.90;67.94;99966.53;5019186;27;97099;-82
2022/11/18 04:54:20;;;;;;;12.63;8.13;;;;;;;6.90;67.84;99972.00;5018720;27;96951;-83
2022/11/18 04:56:46;;;;;;;12.17;7.00;;;;;;;6.94;68.09;99974.50;5002141;27;99928;-83
2022/11/18 04:59:13;;;;;;;10.63;7.30;;;;;;;6.94;68.10;99988.19;5005206;27;97026;-83
2022/11/18 05:01:39;;;;;;;10.87;6.80;;;;;;;6.97;67.99;99982.50;5017226;27;97313;-83
2022/11/18 05:04:05;;;;;;;12.53;7.10;;;;;;;6.96;67.90;99999.38;5024142;27;97285;-83
2022/11/18 05:06:32;;;;;;;14.13;8.27;;;;;;;6.88;67.77;100012.00;5019811;27;97638;-82
2022/11/18 05:08:58;;;;;;;13.37;8.47;;;;;;;6.78;67.97;100005.94;5007882;27;98218;-84
2022/11/18 05:14:08;;;;;;;12.77;8.10;;;;;;;6.70;68.12;100007.59;5023603;27;97101;-83
2022/11/18 05:16:34;;;;;;;12.57;7.50;;;;;;;6.69;68.09;100003.34;5039823;27;98283;-84
2022/11/18 05:19:07;;;;;;;10.77;7.40;;;;;;;6.71;67.82;100006.34;5022879;27;99533;-83
2022/11/18 05:21:33;;;;;;;11.20;7.33;;;;;;;6.73;68.10;100006.59;5012525;27;97059;-81
2022/11/18 05:23:59;;;;;;;10.37;7.37;;;;;;;6.75;67.83;100017.81;5032842;27;96034;-82
2022/11/18 05:26:27;;;;;;;15.90;7.47;;;;;;;6.79;67.77;100056.63;5013514;27;97233;-82
2022/11/18 05:28:53;;;;;;;11.87;7.93;;;;;;;6.75;68.02;100002.16;5005565;27;99315;-82
2022/11/18 05:31:18;;;;;;;12.27;7.43;;;;;;;6.75;67.56;100010.38;5014361;27;97298;-82
2022/11/18 05:33:44;;;;;;;14.90;8.40;;;;;;;6.70;67.79;100037.66;5002863;28;96769;-81
2022/11/18 05:36:15;;;;;;;10.67;6.93;;;;;;;6.71;67.91;100022.75;5025482;27;98768;-82
2022/11/18 05:38:41;;;;;;;9.27;7.17;;;;;;;6.75;67.95;100024.03;5025149;27;97199;-83
2022/11/18 05:41:07;;;;;;;13.47;8.33;;;;;;;6.68;67.86;100024.44;5027161;27;96735;-81
2022/11/18 05:43:34;;;;;;;14.67;8.57;;;;;;;6.65;67.94;100032.88;5034242;27;96501;-82
2022/11/18 05:46:00;;;;;;;14.10;8.07;;;;;;;6.67;67.59;100030.41;5027686;27;97705;-81
2022/11/18 05:48:26;;;;;;;11.13;7.80;;;;;;;6.67;67.67;100035.88;5036411;27;96763;-82
2022/11/18 05:50:53;;;;;;;10.97;6.97;;;;;;;6.66;67.66;100037.09;5030785;27;96898;-81
2022/11/18 05:53:21;;;;;;;13.17;7.77;;;;;;;6.63;67.81;100032.59;5022969;27;96927;-82
2022/11/18 05:56:00;;;;;;;14.43;8.33;;;;;;;6.61;67.60;100040.53;5027982;27;98756;-81
2022/11/18 05:58:25;;;;;;;13.57;8.93;;;;;;;6.54;67.75;100038.19;5049894;27;96704;-81
2022/11/18 06:00:57;;;;;;;13.00;8.00;;;;;;;6.54;67.75;100054.59;5037078;27;96914;-81
2022/11/18 06:03:30;;;;;;;14.17;8.37;;;;;;;6.49;67.46;100047.84;5041991;27;96636;-82
2022/11/18 06:05:58;;;;;;;13.73;8.37;;;;;;;6.48;67.53;100051.03;5042322;27;97599;-82
2022/11/18 06:08:27;;;;;;;12.60;8.20;;;;;;;6.50;67.39;100052.06;5026129;27;97179;-80
2022/11/18 06:10:53;;;;;;;14.47;8.00;;;;;;;6.49;67.74;100071.66;5019291;27;97124;-82
2022/11/18 06:13:30;;;;;;;14.50;9.10;;;;;;;6.45;67.68;100058.22;5041671;27;97264;-82
2022/11/18 06:15:55;;;;;;;13.53;8.27;;;;;;;6.42;67.68;100061.16;5031486;27;101120;-81
2022/11/18 06:18:25;;;;;;;13.70;8.73;;;;;;;6.47;67.66;100058.50;5028596;27;97210;-80
2022/11/18 06:20:55;;;;;;;15.90;9.37;;;;;;;6.48;67.39;100072.91;5033270;27;97118;-81
2022/11/18 06:23:21;;;;;;;12.53;8.23;;;;;;;6.43;67.71;100062.66;5020878;27;96759;-82
2022/11/18 06:25:47;;;;;;;12.43;7.97;;;;;;;6.48;67.62;100081.09;5027285;27;97551;-81
2022/11/18 06:28:15;;;;;;;12.70;8.27;;;;;;;6.42;67.46;100061.16;5004196;27;96867;-81
2022/11/18 06:30:41;;;;;;;14.23;9.00;;;;;;;6.43;67.82;100073.56;5044789;27;97020;-83
2022/11/18 06:33:07;;;;;;;13.37;8.60;;;;;;;6.44;67.44;100105.91;5043882;27;97020;-81
2022/11/18 06:35:33;;;;;;;16.30;9.20;;;;;;;6.44;67.25;100083.28;5038793;27;97209;-82
2022/11/18 06:38:02;;;;;;;18.63;9.47;;;;;;;6.37;67.49;100094.63;5019407;27;98875;-83
2022/11/18 06:40:27;;;;;;;20.50;9.80;;;;;;;6.32;67.56;100087.84;5028177;27;97048;-82
2022/11/18 06:45:37;;;;;;;18.57;10.27;;;;;;;6.24;67.58;100102.38;5042491;27;97781;-81
2022/11/18 06:48:03;;;;;;;16.10;9.77;;;;;;;6.23;67.73;100098.13;5019064;27;96881;-82
2022/11/18 06:50:29;;;;;;;12.37;8.10;;;;;;;6.23;67.74;100111.78;5022838;27;97311;-82
2022/11/18 06:53:00;;;;;;;17.13;8.90;;;;;;;6.25;67.73;100107.34;5025562;27;96691;-82
2022/11/18 06:55:25;;;;;;;18.00;10.30;;;;;;;6.24;67.39;100116.03;5044782;27;101203;-82
2022/11/18 06:57:51;;;;;;;13.97;8.60;;;;;;;6.23;67.61;100117.25;5022258;27;100736;-81
2022/11/18 07:00:17;;;;;;;12.57;8.20;;;;;;;6.22;67.55;100123.97;5019655;27;97261;-82
2022/11/18 07:02:42;;;;;;;17.30;8.57;;;;;;;6.19;67.67;100114.72;5018768;27;97011;-83
2022/11/18 07:05:08;;;;;;;17.97;11.63;;;;;;;6.15;67.37;100129.81;5028643;27;97075;-81
2022/11/18 07:07:34;;;;;;;16.80;9.60;;;;;;;6.06;67.67;100130.66;5026868;27;99600;-81
2022/11/18 07:10:00;;;;;;;17.60;9.77;;;;;;;5.98;67.74;100122.09;5019653;27;96662;-82
2022/11/18 07:12:25;;;;;;;16.23;9.50;;;;;;;5.98;67.82;100122.09;5013263;28;97421;-83
2022/11/18 07:14:51;;;;;;;15.03;9.33;;;;;;;5.97;68.04;100138.97;5000534;28;97034;-82
2022/11/18 07:17:16;;;;;;;20.83;11.10;;;;;;;5.95;67.83;100153.09;4999401;27;97211;-82
2022/11/18 07:19:41;;;;;;;15.63;9.47;;;;;;;5.93;68.08;100152.06;5015124;27;97520;-81
2022/11/18 07:22:07;;;;;;;17.97;9.27;;;;;;;5.95;67.91;100144.16;5031899;27;97062;-82
2022/11/18 07:24:33;;;;;;;17.17;9.40;;;;;;;5.93;67.82;100169.19;5020856;27;100798;-82
2022/11/18 07:26:58;;;;;;;15.50;9.33;;;;;;;5.92;67.73;100156.00;5039444;27;97719;-83
2022/11/18 07:29:24;;;;;;;16.57;9.70;;;;;;;5.90;67.80;100161.19;5020098;27;97006;-82
2022/11/18 07:31:50;;;;;;;17.13;10.40;;;;;;;5.97;67.72;100171.72;5013092;27;97301;-81
2022/11/18 07:34:16;;;;;;;17.43;9.90;;;;;;;6.01;67.78;100169.56;5025189;27;98771;-81
2022/11/18 07:36:42;;;;;;;18.20;9.90;;;;;;;5.98;67.52;100173.25;5022658;27;96886;-82
2022/11/18 07:39:08;;;;;;;18.40;10.10;;;;;;;5.99;67.73;100191.88;5017953;27;96926;-81
2022/11/18 07:41:34;;;;;;;18.17;10.33;;;;;;;6.02;67.55;100182.75;5009390;27;97508;-81
2022/11/18 07:44:01;;;;;;;22.50;10.60;;;;;;;6.00;67.52;100185.19;5024774;27;97906;-82
2022/11/18 07:46:36;;;;;;;19.43;10.20;;;;;;;6.01;67.63;100191.41;5014320;27;97253;-83
2022/11/18 07:49:08;;;;;;;19.47;11.30;;;;;;;6.00;67.60;100187.19;5007779;27;96863;-82
2022/11/18 07:51:36;;;;;;;19.87;10.20;;;;;;;5.95;67.59;100183.13;4993119;27;97444;-84
2022/11/18 07:54:12;;;;;;;21.50;11.67;;;;;;;5.85;67.39;100194.63;5006706;27;98824;-82
2022/11/18 07:56:38;;;;;;;19.47;10.33;;;;;;;5.87;67.57;100206.56;5035987;27;97644;-82
2022/11/18 07:59:05;;;;;;;18.57;10.70;;;;;;;5.83;67.76;100216.16;5018374;27;97250;-82
2022/11/18 08:01:31;;;;;;;18.00;10.37;;;;;;;5.87;67.76;100209.31;5030467;27;97051;-83
2022/11/18 08:04:03;;;;;;;16.93;11.37;;;;;;;5.90;67.73;100211.06;5010658;28;96754;-81
2022/11/18 08:06:31;;;;;;;16.57;10.50;;;;;;;5.93;67.50;100212.13;5041858;27;101785;-82
2022/11/18 08:08:56;;;;;;;17.17;10.27;;;;;;;5.96;67.54;100220.09;5021388;27;97338;-82
2022/11/18 08:11:22;;;;;;;17.97;10.43;;;;;;;5.96;67.48;100222.09;5036550;27;96985;-82
2022/11/18 08:13:48;;;;;;;17.80;10.70;;;;;;;5.93;67.18;100218.34;5022799;27;98541;-84
2022/11/18 08:16:19;;;;;;;18.30;10.17;;;;;;;5.94;67.57;100227.28;5027411;27;97954;-83
2022/11/18 08:18:45;;;;;;;18.87;10.73;;;;;;;5.89;67.39;100231.41;5035955;27;97287;-82
2022/11/18 08:21:12;;;;;;;20.87;11.50;;;;;;;5.80;67.27;100238.91;5026051;27;98876;-82
2022/11/18 08:23:38;;;;;;;19.00;10.90;;;;;;;5.79;67.40;100251.78;5021617;27;98001;-81
2022/11/18 08:26:09;;;;;;;16.60;10.27;;;;;;;5.80;67.21;100252.56;5015293;27;98362;-82
2022/11/18 08:28:35;;;;;;;15.33;9.73;;;;;;;5.77;67.30;100243.31;5040629;27;96730;-81
2022/11/18 08:31:17;;;;;;;18.67;11.53;;;;;;;5.79;67.46;100246.34;5022878;27;97261;-83
2022/11/18 08:33:46;;;;;;;19.60;9.63;;;;;;;5.75;67.30;100245.75;5015059;27;99369;-84
2022/11/18 08:36:17;;;;;;;17.57;10.77;;;;;;;5.72;67.32;100251.41;5003886;27;96977;-83
2022/11/18 08:38:42;;;;;;;16.20;10.00;;;;;;;5.68;67.23;100270.69;5021679;27;97278;-83
2022/11/18 08:41:17;;;;;;;12.97;9.00;;;;;;;5.69;67.49;100266.00;5018028;27;97450;-82
2022/11/18 08:43:43;;;;;;;17.33;9.37;;;;;;;5.64;67.38;100275.56;5040847;27;98591;-82
2022/11/18 08:46:09;;;;;;;17.20;9.70;;;;;;;5.69;67.49;100268.72;5031447;27;98598;-84
2022/11/18 08:48:34;;;;;;;14.70;9.57;;;;;;;5.60;66.96;100272.28;5007131;27;97937;-84
2022/11/18 08:51:00;;;;;;;12.00;8.87;;;;;;;5.54;67.35;100279.59;5018042;27;96851;-83
2022/11/18 08:53:26;;;;;;;14.83;9.20;;;;;;;5.52;67.29;100275.84;5021000;27;99837;-83
2022/11/18 08:55:58;;;;;;;15.10;9.47;;;;;;;5.52;67.29;100282.06;5036172;27;97747;-81
2022/11/18 08:58:25;;;;;;;14.60;9.43;;;;;;;5.56;67.71;100279.91;5010010;27;97213;-83
2022/11/18 09:00:51;;;;;;;14.10;8.40;;;;;;;5.58;67.51;100280.19;5026767;27;97016;-82
2022/11/18 09:03:17;;;;;;;17.57;10.33;;;;;;;5.60;67.48;100283.19;5000619;28;102089;-83
2022/11/18 09:05:42;;;;;;;16.60;10.80;;;;;;;5.56;67.43;100282.63;5023210;27;97854;-83
2022/11/18 09:08:08;;;;;;;18.23;11.60;;;;;;;5.51;67.39;100299.63;5027425;27;97097;-81
2022/11/18 09:10:33;;;;;;;16.50;10.60;;;;;;;5.40;67.16;100313.03;5001069;28;97379;-83
2022/11/18 09:12:59;;;;;;;17.87;11.00;;;;;;;5.40;67.68;100287.72;5021524;27;97989;-82
2022/11/18 09:15:26;;;;;;;20.03;11.53;;;;;;;5.35;67.48;100293.84;5026359;27;98661;-82
2022/11/18 09:17:52;;;;;;;15.77;9.50;;;;;;;5.34;67.51;100306.72;5029226;27;96832;-82
2022/11/18 09:20:18;;;;;;;19.13;10.97;;;;;;;5.30;67.52;100292.50;5015321;27;97412;-83
2022/11/18 09:22:43;;;;;;;18.67;11.10;;;;;;;5.28;67.63;100294.94;5024513;27;97410;-82
2022/11/18 09:25:09;;;;;;;18.63;10.70;;;;;;;5.26;67.36;100298.13;5021270;27;99371;-82
2022/11/18 09:27:35;;;;;;;20.00;12.30;;;;;;;5.30;67.20;100287.06;5020027;27;97237;-82
2022/11/18 09:30:00;;;;;;;19.77;11.70;;;;;;;5.26;67.46;100294.66;5020956;27;97456;-82
2022/11/18 09:32:26;;;;;;;16.93;10.57;;;;;;;5.23;67.60;100311.94;5022406;27;97334;-82
2022/11/18 09:34:51;;;;;;;17.90;10.60;;;;;;;5.27;67.49;100305.09;5010190;27;97131;-82
2022/11/18 09:37:17;;;;;;;18.80;11.40;;;;;;;5.29;67.53;100310.84;5022542;27;97005;-82
2022/11/18 09:39:42;;;;;;;21.23;12.70;;;;;;;5.28;67.48;100309.34;5019404;27;97101;-82
2022/11/18 09:42:20;;;;;;;21.10;11.83;;;;;;;5.22;67.55;100305.72;5042710;27;96905;-82
2022/11/18 09:45:27;;;;;;;20.43;11.47;;;;;;;5.33;67.20;100319.59;5021876;27;97329;-83
2022/11/18 09:47:57;;;;;;;25.97;12.20;;;;;;;5.31;67.23;100327.47;5035943;27;97499;-83
2022/11/18 09:50:22;;;;;;;22.50;11.07;;;;;;;5.28;67.17;100331.16;5044272;27;97056;-83
2022/11/18 09:53:19;;;;;;;20.80;13.03;;;;;;;5.26;66.92;100325.38;5023409;27;98722;-82
2022/11/18 09:55:46;;;;;;;17.97;11.63;;;;;;;5.24;67.44;100348.91;5028386;27;102181;-82
2022/11/18 09:58:21;;;;;;;20.80;11.93;;;;;;;5.28;67.20;100360.41;5017308;27;97004;-82
2022/11/18 10:00:46;;;;;;;21.60;13.23;;;;;;;5.27;67.52;100358.88;5011279;27;97024;-82
2022/11/18 10:03:38;;;;;;;18.00;10.97;;;;;;;5.28;67.28;100358.44;5025794;27;96664;-85
2022/11/18 10:06:04;;;;;;;21.10;11.50;;;;;;;5.27;67.38;100356.16;5035773;27;101956;-83
2022/11/18 10:08:47;;;;;;;22.47;12.30;;;;;;;5.29;67.26;100359.91;5040600;27;97062;-82
2022/11/18 10:11:22;;;;;;;18.67;11.63;;;;;;;5.37;67.17;100360.34;5019124;27;97250;-83
2022/11/18 10:14:18;;;;;;;18.00;11.03;;;;;;;5.46;66.97;100365.72;5014777;27;96856;-82
2022/11/18 10:16:48;;;;;;;21.70;12.93;;;;;;;5.30;66.85;100377.81;5024416;27;101953;-83
2022/11/18 10:19:49;;;;;;;26.97;13.70;;;;;;;5.28;66.34;100379.47;5035262;27;98045;-82
2022/11/18 10:22:30;;;;;;;20.50;13.50;;;;;;;5.19;66.99;100379.53;5021788;27;99241;-81
2022/11/18 10:24:59;;;;;;;24.47;14.00;;;;;;;5.16;66.91;100394.06;5054832;27;97773;-81
2022/11/18 10:27:46;;;;;;;22.37;12.93;;;;;;;5.19;67.21;100390.44;5040866;27;97179;-82
2022/11/18 10:30:15;;;;;;;22.67;11.93;;;;;;;5.25;67.02;100405.69;5012177;27;97401;-83
2022/11/18 10:32:57;;;;;;;19.60;11.87;;;;;;;5.25;67.05;100391.31;5036286;27;96944;-82
2022/11/18 10:35:34;;;;;;;17.23;11.03;;;;;;;5.22;67.14;100392.97;5028072;27;100825;-86
2022/11/18 10:38:12;;;;;;;21.33;11.93;;;;;;;5.21;67.13;100396.19;5019122;27;98764;-83
2022/11/18 10:40:45;;;;;;;18.30;10.40;;;;;;;5.25;67.20;100421.31;5035446;27;97233;-83
2022/11/18 10:43:12;;;;;;;20.60;11.40;;;;;;;5.28;67.27;100406.75;5040788;27;96893;-82
2022/11/18 10:45:39;;;;;;;13.93;9.77;;;;;;;5.14;66.64;100413.63;5023233;27;99187;-83
2022/11/18 10:48:16;;;;;;;15.33;9.67;;;;;;;5.08;67.18;100406.53;5038042;27;97400;-84
2022/11/18 10:50:44;;;;;;;18.30;9.00;;;;;;;4.98;66.75;100430.31;5040050;27;99028;-83
2022/11/18 10:53:33;;;;;;;14.97;10.47;;;;;;;4.97;67.23;100415.19;5022630;27;97500;-84
2022/11/18 10:56:10;;;;;;;13.57;8.90;;;;;;;5.01;67.13;100418.53;5028237;27;101732;-83
2022/11/18 10:58:45;;;;;;;15.50;9.07;;;;;;;5.12;67.25;100420.75;5012467;27;103505;-83
2022/11/18 11:01:21;;;;;;;13.53;8.20;;;;;;;5.19;67.12;100418.47;5023463;27;96745;-83
2022/11/18 11:03:59;;;;;;;12.87;8.73;;;;;;;5.22;66.93;100416.78;5031121;27;97140;-84
2022/11/18 11:06:38;;;;;;;12.30;8.70;;;;;;;5.26;67.15;100411.91;5031736;27;99419;-83
2022/11/18 11:09:30;;;;;;;12.57;8.20;;;;;;;5.24;66.60;100425.25;5016170;27;98484;-83
2022/11/18 11:12:08;;;;;;;11.40;7.97;;;;;;;5.20;66.94;100417.22;5014788;27;98269;-83
2022/11/18 11:14:42;;;;;;;13.23;8.50;;;;;;;5.17;66.49;100428.31;5024172;27;97285;-83
2022/11/18 11:17:28;;;;;;;13.47;8.23;;;;;;;5.18;66.65;100427.09;5004671;27;99712;-82
2022/11/18 11:20:25;;;;;;;11.73;7.80;;;;;;;5.17;66.78;100431.81;5034770;27;101732;-83
2022/11/18 11:22:50;;;;;;;12.37;8.50;;;;;;;5.18;66.29;100433.28;5019982;27;97661;-83
2022/11/18 11:25:37;;;;;;;12.33;7.90;;;;;;;5.15;66.66;100439.69;5016847;27;97009;-84
2022/11/18 11:28:16;;;;;;;13.00;8.00;;;;;;;5.17;66.90;100437.25;5009728;27;102582;-83
2022/11/18 11:30:59;;;;;;;11.27;8.23;;;;;;;5.23;66.44;100446.31;5032109;27;96904;-85
2022/11/18 11:33:47;;;;;;;14.27;8.47;;;;;;;5.23;66.47;100440.84;5023727;27;96803;-84
2022/11/18 11:36:38;;;;;;;9.97;7.13;;;;;;;5.27;66.49;100449.63;5010124;27;96694;-84
2022/11/18 11:39:16;;;;;;;13.70;9.10;;;;;;;5.19;66.71;100439.50;5028057;27;102148;-84
2022/11/18 11:42:01;;;;;;;13.27;9.10;;;;;;;5.22;66.34;100439.34;5009991;27;102415;-84
2022/11/18 11:44:41;;;;;;;10.67;7.83;;;;;;;5.25;66.87;100446.59;5022078;27;98148;-83
2022/11/18 11:47:46;;;;;;;12.30;8.17;;;;;;;5.27;66.50;100454.31;5037016;27;97053;-84
2022/11/18 11:50:21;;;;;;;10.70;8.10;;;;;;;5.28;66.39;100459.34;5017284;27;100941;-84
2022/11/18 11:52:56;;;;;;;12.17;8.27;;;;;;;5.28;66.63;100453.13;5005644;27;100536;-84
2022/11/18 11:55:29;;;;;;;11.70;8.60;;;;;;;5.23;66.48;100461.91;5038523;27;97181;-83
2022/11/18 11:58:32;;;;;;;11.60;8.10;;;;;;;5.26;66.33;100461.75;5022436;27;98527;-85